Kolokoso Airport


Codes: FZDL/
Name: Kolokoso Airport
City: Kolokoso
Country: Congo [DRC]
Elevation: 1312 ft.

Photos at Kolokoso Airport


   Photos courtesy of SpottingLog. You can add your own sightings and photos by signing up for a free trial today.



No photos found.

Weather at Kolokoso Airport


Time (UTC)DescriptionTempratureWindCloud coverageVisibilityPressureHumidity
16-Jun-2024 12:00Overcast Clouds32°C2 mph, SE100%10000m1011hPa22%
16-Jun-2024 15:00Overcast Clouds32°C2 mph, S100%10000m1009hPa21%
16-Jun-2024 18:00Overcast Clouds26°C2 mph, N100%10000m1010hPa32%
16-Jun-2024 21:00Overcast Clouds24°C2 mph, W100%10000m1011hPa36%
17-Jun-2024 00:00Overcast Clouds22°C2 mph, SW100%10000m1011hPa41%
17-Jun-2024 03:00Overcast Clouds20°C2 mph, S100%10000m1012hPa45%
17-Jun-2024 06:00Overcast Clouds21°C0 mph, N99%10000m1014hPa46%
17-Jun-2024 09:00Scattered Clouds32°C2 mph, W45%10000m1014hPa26%
17-Jun-2024 12:00Broken Clouds35°C2 mph, SW66%10000m1010hPa20%
17-Jun-2024 15:00Overcast Clouds34°C0 mph, SW98%10000m1008hPa22%
17-Jun-2024 18:00Overcast Clouds26°C2 mph, S92%10000m1011hPa35%
17-Jun-2024 21:00Scattered Clouds24°C0 mph, SW31%10000m1012hPa38%
18-Jun-2024 00:00Scattered Clouds21°C2 mph, W25%10000m1011hPa48%
18-Jun-2024 03:00Few Clouds20°C2 mph, SW24%10000m1011hPa59%
18-Jun-2024 06:00Few Clouds21°C2 mph, SW12%10000m1013hPa59%
18-Jun-2024 09:00Clear Sky31°C4 mph, SW0%10000m1013hPa34%
18-Jun-2024 12:00Clear Sky37°C2 mph, SE0%10000m1009hPa22%
18-Jun-2024 15:00Clear Sky35°C4 mph, E0%10000m1008hPa21%
18-Jun-2024 18:00Clear Sky26°C2 mph, E0%10000m1010hPa34%
18-Jun-2024 21:00Clear Sky25°C0 mph, NW0%10000m1011hPa39%
19-Jun-2024 00:00Clear Sky23°C4 mph, W4%10000m1010hPa44%
19-Jun-2024 03:00Scattered Clouds21°C2 mph, SW30%10000m1010hPa53%
19-Jun-2024 06:00Broken Clouds22°C2 mph, W62%10000m1012hPa58%
19-Jun-2024 09:00Scattered Clouds31°C4 mph, SW44%10000m1012hPa38%
19-Jun-2024 12:00Scattered Clouds37°C2 mph, W43%10000m1009hPa24%
19-Jun-2024 15:00Few Clouds35°C0 mph, SE16%10000m1006hPa22%
19-Jun-2024 18:00Scattered Clouds27°C2 mph, SE25%10000m1009hPa35%
19-Jun-2024 21:00Broken Clouds25°C0 mph, N56%10000m1010hPa40%
20-Jun-2024 00:00Broken Clouds23°C4 mph, N56%10000m1010hPa49%
20-Jun-2024 03:00Scattered Clouds21°C2 mph, SW30%10000m1010hPa62%
20-Jun-2024 06:00Few Clouds23°C2 mph, SW17%10000m1012hPa61%
20-Jun-2024 09:00Clear Sky32°C4 mph, SW7%10000m1012hPa34%
20-Jun-2024 12:00Few Clouds38°C2 mph, E11%10000m1008hPa22%
20-Jun-2024 15:00Clear Sky36°C4 mph, E4%10000m1006hPa20%
20-Jun-2024 18:00Clear Sky28°C2 mph, NE3%10000m1008hPa33%
20-Jun-2024 21:00Clear Sky26°C0 mph, N2%10000m1010hPa38%
21-Jun-2024 00:00Clear Sky23°C0 mph, NW3%10000m1010hPa44%
21-Jun-2024 03:00Clear Sky22°C2 mph, SW6%10000m1011hPa51%
21-Jun-2024 06:00Clear Sky23°C4 mph, W5%10000m1012hPa54%
21-Jun-2024 09:00Broken Clouds32°C4 mph, SW55%10000m1012hPa33%